Time;durP1;ratioP1;P1;durP2;ratioP2;P2;SDS_P1;SDS_P2;PMS_P1;PMS_P2;Temp;Humidity;BMP_temperature;BMP_pressure;BME280_temperature;BME280_humidity;BME280_pressure;Samples;Min_cycle;Max_cycle;Signal;HPM_P1;HPM_P2
2021/06/11 00:01:10;;;;;;;8.00;7.20;;;16.70;93.40;;;;;;5039964;28;20032;-70
2021/06/11 00:03:36;;;;;;;10.68;7.55;;;16.70;93.40;;;;;;5050122;28;20021;-70
2021/06/11 00:06:02;;;;;;;7.22;6.45;;;16.70;93.40;;;;;;5048988;28;20025;-70
2021/06/11 00:08:29;;;;;;;7.07;6.30;;;16.70;93.40;;;;;;5053692;28;20051;-70
2021/06/11 00:10:55;;;;;;;12.25;7.38;;;16.70;93.40;;;;;;5054228;28;20029;-69
2021/06/11 00:13:21;;;;;;;7.65;6.85;;;16.70;93.40;;;;;;5051536;28;20028;-69
2021/06/11 00:15:48;;;;;;;6.22;5.50;;;16.70;93.50;;;;;;5052472;28;20371;-67
2021/06/11 00:18:13;;;;;;;9.23;6.63;;;16.70;93.40;;;;;;5053441;28;20112;-70
2021/06/11 00:20:39;;;;;;;8.23;6.53;;;16.60;93.40;;;;;;5054494;28;20488;-69
2021/06/11 00:23:04;;;;;;;8.05;6.95;;;16.60;93.40;;;;;;5034318;28;20029;-67
2021/06/11 00:25:30;;;;;;;9.15;5.80;;;16.60;93.40;;;;;;5034770;28;20500;-69
2021/06/11 00:27:59;;;;;;;11.05;6.47;;;16.50;93.40;;;;;;5050885;28;20029;-70
2021/06/11 00:30:25;;;;;;;8.20;6.05;;;16.60;93.50;;;;;;5051633;28;20830;-70
2021/06/11 00:32:51;;;;;;;8.45;6.97;;;16.50;93.40;;;;;;5053423;28;20393;-68
2021/06/11 00:35:17;;;;;;;7.70;6.25;;;16.50;93.50;;;;;;5052639;28;20031;-68
2021/06/11 00:37:43;;;;;;;8.98;6.63;;;16.50;93.50;;;;;;5052894;28;20476;-70
2021/06/11 00:40:10;;;;;;;7.32;6.63;;;16.50;93.40;;;;;;5053258;28;20045;-70
2021/06/11 00:42:36;;;;;;;8.45;6.85;;;16.40;93.40;;;;;;5075778;22;20080;-69
2021/06/11 00:45:04;;;;;;;8.05;6.75;;;16.40;93.30;;;;;;5052906;28;20024;-69
2021/06/11 00:47:29;;;;;;;8.50;6.45;;;16.40;93.30;;;;;;5069185;28;20021;-69
2021/06/11 00:49:55;;;;;;;10.38;6.10;;;16.40;93.30;;;;;;5050566;28;20035;-69
2021/06/11 00:52:23;;;;;;;7.32;6.53;;;16.30;93.30;;;;;;5066300;28;20074;-69
2021/06/11 00:54:49;;;;;;;6.93;6.22;;;16.30;93.30;;;;;;5069440;28;20044;-69
2021/06/11 00:57:15;;;;;;;8.38;6.68;;;16.30;93.30;;;;;;5067544;28;20025;-69
2021/06/11 00:59:41;;;;;;;8.07;6.65;;;16.30;93.30;;;;;;5036827;28;20032;-68
2021/06/11 01:02:08;;;;;;;7.82;6.57;;;16.30;93.30;;;;;;5053324;28;20040;-69
2021/06/11 01:04:34;;;;;;;8.13;5.78;;;16.20;93.20;;;;;;5071255;28;20029;-69
2021/06/11 01:07:02;;;;;;;6.82;6.05;;;16.20;93.20;;;;;;5071719;28;20086;-69
2021/06/11 01:09:30;;;;;;;7.35;6.63;;;16.20;93.20;;;;;;5072119;28;20131;-69
2021/06/11 01:11:57;;;;;;;9.50;6.32;;;16.20;93.10;;;;;;5070584;28;20025;-69
2021/06/11 01:14:22;;;;;;;7.40;6.32;;;16.10;93.00;;;;;;5069531;28;20024;-68
2021/06/11 01:16:48;;;;;;;9.38;7.05;;;16.10;93.00;;;;;;5053034;28;20532;-69
2021/06/11 01:19:14;;;;;;;10.57;7.40;;;16.20;93.10;;;;;;5069594;28;20028;-69
2021/06/11 01:21:53;;;;;;;19.95;7.43;;;16.10;93.00;;;;;;5070641;28;20020;-68
2021/06/11 01:24:25;;;;;;;26.55;7.18;;;16.00;93.00;;;;;;5070558;28;20100;-69
2021/06/11 01:26:54;;;;;;;10.82;7.80;;;16.00;93.00;;;;;;5053169;28;20477;-68
2021/06/11 01:29:25;;;;;;;9.68;7.82;;;15.90;93.00;;;;;;5070439;28;20047;-69
2021/06/11 01:31:57;;;;;;;11.25;8.00;;;15.80;93.10;;;;;;5070742;28;20020;-68
2021/06/11 01:34:33;;;;;;;11.60;9.02;;;15.80;93.30;;;;;;5070745;28;20476;-69
2021/06/11 01:37:23;;;;;;;11.55;8.55;;;15.80;93.40;;;;;;5071099;28;20040;-69
2021/06/11 01:39:53;;;;;;;13.30;9.32;;;15.80;93.40;;;;;;5063737;28;20040;-67
2021/06/11 01:42:19;;;;;;;10.32;8.20;;;15.80;93.50;;;;;;5070725;28;20379;-70
2021/06/11 01:44:46;;;;;;;12.98;8.82;;;15.80;93.50;;;;;;5063410;28;20101;-69
2021/06/11 01:47:13;;;;;;;16.13;9.80;;;15.80;93.50;;;;;;5067599;28;20021;-69
2021/06/11 01:49:41;;;;;;;14.57;9.50;;;15.80;93.50;;;;;;5071113;28;20025;-69
2021/06/11 01:52:08;;;;;;;13.38;9.57;;;15.80;93.60;;;;;;5070748;28;20086;-70
2021/06/11 01:54:35;;;;;;;18.95;9.85;;;15.80;93.50;;;;;;5069629;28;20123;-68
2021/06/11 01:57:02;;;;;;;15.73;10.30;;;15.80;93.50;;;;;;5048465;28;20434;-70
2021/06/11 01:59:28;;;;;;;17.17;11.25;;;15.80;93.60;;;;;;5064414;28;20071;-69
2021/06/11 02:01:55;;;;;;;23.02;10.93;;;15.80;93.80;;;;;;5069170;28;20020;-68
2021/06/11 02:04:21;;;;;;;36.38;10.77;;;15.80;93.60;;;;;;5068778;28;20108;-69
2021/06/11 02:06:48;;;;;;;34.42;9.35;;;15.80;93.60;;;;;;5070809;28;20098;-69
2021/06/11 02:09:14;;;;;;;28.85;9.60;;;15.80;93.60;;;;;;5070323;28;20039;-69
2021/06/11 02:11:41;;;;;;;22.70;8.57;;;15.80;93.70;;;;;;5070449;28;20108;-68
2021/06/11 02:14:13;;;;;;;24.45;8.80;;;15.70;93.50;;;;;;5059709;28;20033;-70
2021/06/11 02:16:40;;;;;;;15.75;8.32;;;15.60;93.60;;;;;;5065113;28;20036;-69
2021/06/11 02:19:06;;;;;;;18.83;8.15;;;15.60;93.60;;;;;;5052335;28;20028;-71
2021/06/11 02:21:33;;;;;;;11.38;8.50;;;15.60;93.60;;;;;;5060674;28;20056;-69
2021/06/11 02:23:59;;;;;;;30.15;9.55;;;15.50;93.70;;;;;;5057577;28;20024;-70
2021/06/11 02:26:27;;;;;;;20.02;9.55;;;15.50;93.70;;;;;;5070486;28;20081;-70
2021/06/11 02:28:53;;;;;;;22.27;8.00;;;15.50;93.80;;;;;;5069694;28;20033;-70
2021/06/11 02:31:19;;;;;;;32.10;7.93;;;15.50;93.90;;;;;;5069200;28;20092;-67
2021/06/11 02:33:46;;;;;;;19.70;8.18;;;15.40;93.80;;;;;;5070405;28;20074;-68
2021/06/11 02:36:12;;;;;;;9.02;7.32;;;15.40;93.90;;;;;;5069483;28;20031;-70
2021/06/11 02:38:38;;;;;;;12.93;7.50;;;15.40;93.90;;;;;;5069300;28;20025;-70
2021/06/11 02:41:06;;;;;;;10.32;7.55;;;15.30;93.90;;;;;;5069604;28;20120;-69
2021/06/11 02:43:33;;;;;;;16.35;7.72;;;15.30;93.90;;;;;;5041807;28;20068;-69
2021/06/11 02:46:17;;;;;;;19.65;8.07;;;15.30;93.90;;;;;;5064637;28;20703;-69
2021/06/11 02:48:57;;;;;;;12.52;7.35;;;15.30;94.00;;;;;;5051938;28;20087;-69
2021/06/11 02:51:36;;;;;;;16.40;7.60;;;15.30;93.90;;;;;;5068509;28;20028;-68
2021/06/11 02:54:04;;;;;;;10.30;7.07;;;15.30;93.90;;;;;;5068506;28;20025;-69
2021/06/11 02:56:45;;;;;;;10.10;7.18;;;15.20;93.90;;;;;;5068132;28;20035;-68
2021/06/11 02:59:17;;;;;;;12.68;7.50;;;15.20;94.10;;;;;;5041047;28;20032;-70
2021/06/11 03:01:50;;;;;;;11.18;7.18;;;15.30;94.10;;;;;;5069826;28;20464;-70
2021/06/11 03:04:18;;;;;;;13.77;7.88;;;15.20;94.10;;;;;;5069271;28;20470;-70
2021/06/11 03:06:45;;;;;;;9.60;8.07;;;15.20;94.00;;;;;;5069830;28;20439;-69
2021/06/11 03:09:19;;;;;;;17.38;8.90;;;15.20;94.10;;;;;;5069618;28;20025;-69
2021/06/11 03:11:45;;;;;;;10.05;7.90;;;15.20;94.20;;;;;;5051612;28;20020;-70
2021/06/11 03:14:12;;;;;;;14.05;8.52;;;15.20;94.40;;;;;;5062808;28;20048;-70
2021/06/11 03:16:43;;;;;;;12.10;9.38;;;15.20;94.20;;;;;;5061490;28;20032;-70
2021/06/11 03:19:11;;;;;;;17.80;8.80;;;15.20;94.30;;;;;;5069948;28;20025;-70
2021/06/11 03:21:59;;;;;;;11.38;8.48;;;15.20;94.40;;;;;;5069400;28;20031;-69
2021/06/11 03:24:33;;;;;;;16.02;9.50;;;15.20;94.40;;;;;;5050653;28;20028;-70
2021/06/11 03:27:10;;;;;;;14.52;9.43;;;15.20;94.40;;;;;;5068418;28;20032;-68
2021/06/11 03:29:40;;;;;;;30.50;8.52;;;15.20;94.60;;;;;;5051254;28;20472;-69
2021/06/11 03:32:10;;;;;;;20.98;8.77;;;15.30;94.40;;;;;;5069583;28;20024;-69
2021/06/11 03:34:41;;;;;;;12.40;8.77;;;15.20;94.30;;;;;;5068300;28;20024;-70
2021/06/11 03:37:15;;;;;;;21.10;10.07;;;15.20;94.30;;;;;;5051726;28;20031;-70
2021/06/11 03:39:53;;;;;;;16.73;9.55;;;15.20;94.40;;;;;;5051246;28;20032;-70
2021/06/11 03:42:19;;;;;;;15.02;9.35;;;15.20;94.50;;;;;;5068269;28;20043;-68
2021/06/11 03:44:48;;;;;;;20.30;9.60;;;15.20;94.50;;;;;;5066651;28;20481;-69
2021/06/11 03:47:17;;;;;;;22.88;8.55;;;15.20;94.60;;;;;;5071231;28;20029;-70
2021/06/11 03:49:45;;;;;;;40.38;8.40;;;15.20;94.60;;;;;;5073181;28;20032;-69
2021/06/11 03:52:12;;;;;;;24.60;7.40;;;15.20;94.50;;;;;;5072950;28;20029;-70
2021/06/11 03:54:42;;;;;;;123.47;7.93;;;15.10;94.40;;;;;;5071990;28;20025;-69
2021/06/11 03:57:09;;;;;;;189.68;8.93;;;15.10;94.20;;;;;;5049724;28;20031;-70
2021/06/11 03:59:36;;;;;;;22.63;6.90;;;15.00;94.10;;;;;;5065913;28;20056;-70
2021/06/11 04:02:04;;;;;;;80.78;9.02;;;14.80;94.20;;;;;;5065546;28;20094;-69
2021/06/11 04:04:31;;;;;;;30.70;9.00;;;14.80;94.30;;;;;;5056425;28;20071;-70
2021/06/11 04:07:31;;;;;;;22.30;8.57;;;14.70;94.30;;;;;;5072204;28;20032;-69
2021/06/11 04:10:05;;;;;;;24.02;7.57;;;14.70;94.60;;;;;;5072473;28;20075;-71
2021/06/11 04:12:46;;;;;;;45.13;7.03;;;14.70;94.70;;;;;;5070054;28;20057;-69
2021/06/11 04:15:12;;;;;;;42.63;6.55;;;14.70;94.70;;;;;;5052867;28;20029;-69
2021/06/11 04:17:41;;;;;;;33.40;6.93;;;14.70;94.60;;;;;;5072669;28;20033;-69
2021/06/11 04:20:15;;;;;;;25.52;7.18;;;14.80;94.70;;;;;;5071742;28;20465;-69
2021/06/11 04:22:44;;;;;;;37.08;7.60;;;14.70;94.70;;;;;;5072807;28;20082;-69
2021/06/11 04:25:13;;;;;;;23.63;6.57;;;14.80;94.70;;;;;;5071906;28;20025;-68
2021/06/11 04:27:41;;;;;;;14.05;7.25;;;14.80;94.80;;;;;;5071698;28;20030;-70
2021/06/11 04:30:09;;;;;;;47.42;7.65;;;14.80;94.80;;;;;;5072974;28;20106;-68
2021/06/11 04:32:34;;;;;;;19.73;7.30;;;14.80;94.80;;;;;;5054715;28;20397;-69
2021/06/11 04:35:00;;;;;;;12.40;6.57;;;14.80;94.90;;;;;;5070585;28;20036;-71
2021/06/11 04:37:26;;;;;;;19.30;7.53;;;14.80;95.00;;;;;;5071278;28;20108;-70
2021/06/11 04:39:52;;;;;;;15.50;7.03;;;14.90;95.00;;;;;;5071914;28;20468;-70
2021/06/11 04:42:17;;;;;;;19.15;7.30;;;14.90;95.00;;;;;;5071812;28;20047;-70
2021/06/11 04:44:43;;;;;;;18.42;6.30;;;14.90;95.00;;;;;;5051978;28;20049;-70
2021/06/11 04:47:09;;;;;;;21.08;6.80;;;14.90;95.00;;;;;;5069420;28;20070;-70
2021/06/11 04:49:36;;;;;;;20.92;6.40;;;14.90;95.00;;;;;;5066895;28;20166;-68
2021/06/11 04:52:03;;;;;;;14.32;6.95;;;14.90;94.90;;;;;;5051274;28;20090;-69
2021/06/11 04:54:28;;;;;;;19.95;8.20;;;14.90;94.90;;;;;;5052881;28;20095;-68
2021/06/11 04:56:54;;;;;;;13.70;7.90;;;15.00;95.00;;;;;;5053438;28;20020;-68
2021/06/11 04:59:19;;;;;;;9.70;7.90;;;15.00;95.00;;;;;;5042762;28;20113;-69
2021/06/11 05:01:45;;;;;;;10.27;7.53;;;15.00;95.10;;;;;;5066107;28;20054;-68
2021/06/11 05:04:12;;;;;;;10.80;8.25;;;15.10;95.00;;;;;;5052235;28;20123;-66
2021/06/11 05:06:38;;;;;;;17.08;7.80;;;15.10;95.00;;;;;;5070865;28;20024;-68
2021/06/11 05:09:04;;;;;;;25.23;8.70;;;15.10;95.00;;;;;;5054118;28;20089;-70
2021/06/11 05:11:30;;;;;;;13.70;9.20;;;15.20;95.00;;;;;;5072011;28;20040;-69
2021/06/11 05:13:55;;;;;;;16.77;8.88;;;15.20;94.90;;;;;;5070027;28;20120;-69
2021/06/11 05:16:21;;;;;;;24.17;9.05;;;15.20;94.80;;;;;;5071313;28;20032;-69
2021/06/11 05:18:46;;;;;;;12.23;8.57;;;15.20;94.70;;;;;;5072286;28;20032;-70
2021/06/11 05:21:12;;;;;;;21.38;9.10;;;15.20;94.80;;;;;;5053706;28;20021;-68
2021/06/11 05:23:37;;;;;;;14.48;9.43;;;15.20;94.80;;;;;;5069720;28;20024;-70
2021/06/11 05:26:04;;;;;;;56.28;10.02;;;15.20;94.80;;;;;;5063587;28;20029;-70
2021/06/11 05:28:29;;;;;;;58.13;9.68;;;15.20;94.80;;;;;;5071434;28;20582;-70
2021/06/11 05:30:55;;;;;;;37.35;8.63;;;15.10;94.60;;;;;;5053555;28;20122;-70
2021/06/11 05:33:22;;;;;;;14.82;9.20;;;15.10;94.60;;;;;;5071763;28;20024;-70
2021/06/11 05:35:48;;;;;;;17.30;9.35;;;15.10;94.80;;;;;;5070743;28;20024;-70
2021/06/11 05:38:15;;;;;;;38.47;10.82;;;15.20;94.80;;;;;;5071517;28;20090;-70
2021/06/11 05:40:41;;;;;;;24.38;9.88;;;15.20;95.10;;;;;;5070881;28;20021;-68
2021/06/11 05:43:07;;;;;;;22.85;9.65;;;15.30;94.80;;;;;;5052399;28;20036;-68
2021/06/11 05:45:33;;;;;;;35.92;9.65;;;15.30;95.00;;;;;;5047676;28;20632;-68
2021/06/11 05:48:00;;;;;;;14.70;10.90;;;15.50;95.00;;;;;;5071608;28;20108;-68
2021/06/11 05:50:26;;;;;;;18.98;10.10;;;15.50;94.90;;;;;;5051632;28;20036;-70
2021/06/11 05:52:54;;;;;;;35.30;11.13;;;15.60;95.00;;;;;;5052392;28;20130;-69
2021/06/11 05:55:20;;;;;;;43.05;10.65;;;15.70;94.90;;;;;;5069054;28;20038;-69
2021/06/11 05:57:46;;;;;;;89.35;10.55;;;15.70;94.60;;;;;;5069151;28;20032;-69
2021/06/11 06:00:12;;;;;;;28.25;10.10;;;15.70;94.60;;;;;;5066219;28;20487;-70
2021/06/11 06:02:37;;;;;;;16.58;11.73;;;15.70;94.70;;;;;;5065317;28;20075;-69
2021/06/11 06:05:04;;;;;;;20.85;11.25;;;15.70;94.80;;;;;;5063673;28;20376;-69
2021/06/11 06:07:30;;;;;;;16.23;11.50;;;15.90;94.90;;;;;;5065981;28;20024;-69
2021/06/11 06:09:56;;;;;;;15.00;9.50;;;16.00;95.00;;;;;;5070510;28;20498;-69
2021/06/11 06:12:22;;;;;;;28.45;10.35;;;16.10;95.00;;;;;;5051035;28;20028;-69
2021/06/11 06:14:48;;;;;;;10.77;9.40;;;16.10;94.80;;;;;;5059722;28;20103;-70
2021/06/11 06:17:13;;;;;;;11.07;9.57;;;16.30;94.90;;;;;;5069093;28;20024;-69
2021/06/11 06:19:42;;;;;;;15.20;9.98;;;16.40;94.90;;;;;;5070465;28;20040;-69
2021/06/11 06:22:08;;;;;;;12.45;9.82;;;16.50;94.90;;;;;;5052652;28;20024;-69
2021/06/11 06:24:34;;;;;;;14.52;11.02;;;16.70;94.90;;;;;;5051357;28;20071;-69
2021/06/11 06:26:59;;;;;;;13.60;10.88;;;16.80;94.90;;;;;;5064748;28;20100;-71
2021/06/11 06:29:25;;;;;;;11.38;9.90;;;16.90;94.80;;;;;;5059622;28;20020;-69
2021/06/11 06:31:50;;;;;;;12.45;10.10;;;17.10;94.80;;;;;;5064467;28;20029;-68
2021/06/11 06:34:16;;;;;;;12.82;10.35;;;17.30;94.70;;;;;;5039572;28;20032;-67
2021/06/11 06:36:42;;;;;;;14.55;10.43;;;17.40;94.60;;;;;;5069956;28;20051;-67
2021/06/11 06:39:08;;;;;;;12.63;10.27;;;17.50;94.30;;;;;;5070984;28;20032;-68
2021/06/11 06:41:35;;;;;;;12.10;9.88;;;17.50;94.20;;;;;;5051044;28;20040;-68
2021/06/11 06:44:01;;;;;;;11.32;9.60;;;17.70;94.30;;;;;;5058639;28;20032;-68
2021/06/11 06:46:27;;;;;;;11.15;9.23;;;17.90;94.30;;;;;;5068997;28;20036;-68
2021/06/11 06:48:53;;;;;;;10.43;9.10;;;18.10;94.30;;;;;;5067615;28;20020;-66
2021/06/11 06:51:20;;;;;;;10.60;9.13;;;18.30;94.20;;;;;;5069428;28;20037;-68
2021/06/11 06:53:49;;;;;;;10.05;8.32;;;18.50;94.10;;;;;;5070717;28;20047;-68
2021/06/11 06:56:15;;;;;;;10.57;8.20;;;18.70;93.90;;;;;;5067983;28;20055;-67
2021/06/11 06:58:41;;;;;;;9.65;8.35;;;18.90;93.90;;;;;;5066580;28;20089;-67
2021/06/11 07:01:07;;;;;;;10.85;8.80;;;19.00;93.10;;;;;;5062715;28;20407;-66
2021/06/11 07:03:33;;;;;;;9.38;8.38;;;19.00;92.80;;;;;;5069626;28;20016;-67
2021/06/11 07:05:58;;;;;;;15.25;8.98;;;19.10;92.80;;;;;;5069028;28;20021;-67
2021/06/11 07:08:30;;;;;;;10.18;8.57;;;19.20;92.80;;;;;;5066820;28;20044;-67
2021/06/11 07:10:56;;;;;;;11.30;8.38;;;19.30;92.70;;;;;;5067078;28;20021;-67
2021/06/11 07:13:22;;;;;;;10.40;9.27;;;19.40;92.60;;;;;;5060569;28;20047;-67
2021/06/11 07:15:47;;;;;;;9.73;8.07;;;19.60;92.60;;;;;;5034185;28;20078;-67
2021/06/11 07:18:13;;;;;;;10.02;8.57;;;19.90;92.40;;;;;;5068366;28;20035;-67
2021/06/11 07:20:38;;;;;;;9.65;7.60;;;20.20;92.30;;;;;;5069575;28;20103;-67
2021/06/11 07:23:04;;;;;;;9.32;8.30;;;20.40;92.20;;;;;;5060163;28;20016;-67
2021/06/11 07:25:29;;;;;;;8.68;7.78;;;20.60;91.80;;;;;;5065977;28;20099;-68
2021/06/11 07:27:55;;;;;;;8.48;7.47;;;20.80;91.70;;;;;;5037724;28;20032;-68
2021/06/11 07:30:21;;;;;;;13.80;8.02;;;21.00;91.30;;;;;;5048851;28;20073;-68
2021/06/11 07:32:46;;;;;;;9.40;7.60;;;21.20;91.20;;;;;;5066257;28;20032;-68
2021/06/11 07:35:14;;;;;;;8.10;7.25;;;21.50;91.00;;;;;;5060990;28;20496;-67
2021/06/11 07:37:40;;;;;;;7.38;6.63;;;21.60;90.70;;;;;;5040204;28;20029;-67
2021/06/11 07:40:08;;;;;;;9.85;7.68;;;21.90;90.70;;;;;;5068738;28;20753;-68
2021/06/11 07:42:33;;;;;;;7.93;6.93;;;22.10;90.40;;;;;;5059033;28;20435;-67
2021/06/11 07:44:59;;;;;;;8.75;7.32;;;22.30;89.50;;;;;;5066406;28;20074;-69
2021/06/11 07:47:24;;;;;;;8.63;6.75;;;22.50;90.00;;;;;;5069036;28;20025;-67
2021/06/11 07:49:50;;;;;;;8.65;7.28;;;22.80;89.60;;;;;;5066943;28;20033;-66
2021/06/11 07:52:16;;;;;;;8.40;6.78;;;23.30;88.70;;;;;;5058093;28;20116;-67
2021/06/11 07:54:41;;;;;;;7.30;6.60;;;23.80;87.60;;;;;;5050954;28;20032;-68
2021/06/11 07:57:07;;;;;;;7.90;6.70;;;24.10;86.10;;;;;;5046509;28;20028;-68
2021/06/11 07:59:33;;;;;;;10.48;6.60;;;24.20;84.40;;;;;;5066619;28;20020;-68
2021/06/11 08:01:59;;;;;;;6.80;5.65;;;24.20;83.80;;;;;;5067778;28;20086;-67
2021/06/11 08:04:24;;;;;;;8.18;5.03;;;24.40;84.30;;;;;;5050380;28;20477;-68
2021/06/11 08:06:50;;;;;;;6.00;4.63;;;24.60;83.50;;;;;;5067938;28;20075;-67
2021/06/11 08:09:16;;;;;;;6.85;5.20;;;24.90;83.10;;;;;;5068066;28;20450;-67
2021/06/11 08:11:41;;;;;;;5.22;4.70;;;25.20;82.20;;;;;;5066397;28;20028;-67
2021/06/11 08:14:07;;;;;;;6.53;5.28;;;25.60;81.60;;;;;;5068360;28;20513;-68
2021/06/11 08:16:33;;;;;;;5.80;5.03;;;26.00;80.00;;;;;;5050271;28;20043;-68
2021/06/11 08:18:58;;;;;;;4.60;4.20;;;26.30;79.30;;;;;;5047480;28;20128;-68
2021/06/11 08:21:24;;;;;;;5.65;4.65;;;26.70;78.20;;;;;;5069715;28;20078;-67
2021/06/11 08:23:50;;;;;;;4.65;4.20;;;27.00;76.90;;;;;;5067621;28;20538;-67
2021/06/11 08:26:15;;;;;;;5.43;3.97;;;27.30;76.10;;;;;;5063105;28;20028;-67
2021/06/11 08:28:41;;;;;;;5.50;4.50;;;27.50;75.30;;;;;;5066203;28;20195;-68
2021/06/11 08:31:07;;;;;;;5.10;3.92;;;27.80;74.10;;;;;;5065063;28;20029;-68
2021/06/11 08:33:33;;;;;;;4.47;4.07;;;28.20;73.20;;;;;;5053408;28;20021;-67
2021/06/11 08:35:59;;;;;;;6.97;4.10;;;28.60;72.20;;;;;;5069417;28;20037;-68
2021/06/11 08:38:25;;;;;;;3.92;3.60;;;29.00;70.60;;;;;;5055050;28;20031;-67
2021/06/11 08:40:51;;;;;;;4.15;3.80;;;29.40;69.30;;;;;;5070936;28;20485;-68
2021/06/11 08:43:21;;;;;;;4.80;3.65;;;29.80;68.10;;;;;;5063018;28;20036;-67
2021/06/11 08:45:49;;;;;;;3.85;3.03;;;30.10;66.90;;;;;;5070628;28;20021;-68
2021/06/11 08:48:14;;;;;;;6.80;3.17;;;30.50;66.20;;;;;;5071505;28;20476;-67
2021/06/11 08:50:43;;;;;;;3.30;3.10;;;31.00;64.90;;;;;;5070342;28;20060;-67
2021/06/11 08:53:10;;;;;;;3.45;2.70;;;31.30;63.70;;;;;;5071441;28;20030;-67
2021/06/11 08:55:36;;;;;;;2.80;2.47;;;31.60;62.20;;;;;;5062353;28;20024;-68
2021/06/11 08:58:03;;;;;;;2.70;2.50;;;32.00;61.20;;;;;;5053584;28;20398;-68
2021/06/11 09:00:32;;;;;;;2.60;2.40;;;32.40;59.10;;;;;;5070270;28;20028;-68
2021/06/11 09:03:08;;;;;;;2.75;2.10;;;32.70;58.10;;;;;;5071180;28;20108;-68
2021/06/11 09:05:34;;;;;;;2.55;2.15;;;33.20;56.80;;;;;;5051289;28;20021;-68
2021/06/11 09:08:17;;;;;;;2.38;2.03;;;33.50;54.80;;;;;;5070859;28;20048;-68
2021/06/11 09:10:44;;;;;;;2.10;1.90;;;33.60;54.40;;;;;;5071132;28;20025;-69
2021/06/11 09:13:19;;;;;;;2.20;2.10;;;33.80;52.80;;;;;;5068431;28;20024;-68
2021/06/11 09:15:45;;;;;;;2.28;2.08;;;34.10;52.20;;;;;;5066101;28;20029;-68
2021/06/11 09:18:23;;;;;;;3.15;2.95;;;34.40;52.50;;;;;;5058929;28;20151;-68
2021/06/11 09:20:50;;;;;;;4.38;2.95;;;34.80;52.10;;;;;;5062638;28;20111;-67
2021/06/11 09:23:18;;;;;;;3.60;2.67;;;35.10;50.80;;;;;;5053658;28;20025;-67
2021/06/11 09:25:48;;;;;;;3.13;2.83;;;35.40;50.90;;;;;;5068766;28;20049;-67
2021/06/11 09:28:23;;;;;;;4.15;3.00;;;35.60;49.40;;;;;;5058711;28;20016;-69
2021/06/11 09:30:56;;;;;;;6.00;2.67;;;35.70;49.10;;;;;;5071696;28;20139;-69
2021/06/11 09:33:24;;;;;;;2.85;2.60;;;35.80;49.30;;;;;;5069990;28;20444;-69
2021/06/11 09:35:52;;;;;;;4.32;2.67;;;36.10;49.00;;;;;;5038281;28;20426;-69
2021/06/11 09:38:21;;;;;;;3.00;2.80;;;36.30;48.20;;;;;;5053272;28;20114;-69
2021/06/11 09:40:51;;;;;;;2.78;2.60;;;36.60;47.50;;;;;;5069610;28;20429;-69
2021/06/11 09:43:18;;;;;;;3.10;2.77;;;36.90;47.10;;;;;;5063033;28;20154;-68
2021/06/11 09:45:58;;;;;;;3.05;2.60;;;37.10;47.00;;;;;;5032504;28;20358;-68
2021/06/11 09:48:26;;;;;;;2.88;2.67;;;37.20;46.40;;;;;;5043134;28;20784;-70
2021/06/11 09:50:52;;;;;;;3.35;3.05;;;37.30;47.00;;;;;;5068387;28;20396;-67
2021/06/11 09:53:23;;;;;;;2.80;2.60;;;37.10;45.70;;;;;;5070016;28;20021;-69
2021/06/11 09:55:54;;;;;;;2.95;2.75;;;36.60;45.80;;;;;;5070235;28;20020;-68
2021/06/11 09:58:26;;;;;;;2.88;2.53;;;36.10;45.90;;;;;;5068807;28;20060;-69
2021/06/11 10:01:11;;;;;;;2.67;2.47;;;35.90;47.30;;;;;;5069950;28;20028;-68
2021/06/11 10:03:39;;;;;;;3.40;2.90;;;35.80;48.30;;;;;;5051046;28;20047;-69
2021/06/11 10:06:09;;;;;;;2.83;2.63;;;35.70;47.50;;;;;;5069689;28;20045;-68
2021/06/11 10:08:36;;;;;;;3.33;3.03;;;35.50;47.30;;;;;;5060447;28;20028;-67
2021/06/11 10:11:04;;;;;;;3.95;3.05;;;35.40;47.50;;;;;;5061869;28;20094;-68
2021/06/11 10:13:30;;;;;;;3.20;2.90;;;35.20;46.90;;;;;;5064968;28;20020;-70
2021/06/11 10:16:05;;;;;;;2.70;2.50;;;35.00;47.00;;;;;;5067791;28;20051;-69
2021/06/11 10:18:30;;;;;;;2.65;2.45;;;34.90;47.30;;;;;;5068555;28;20052;-70
2021/06/11 10:20:58;;;;;;;3.58;2.60;;;34.70;48.50;;;;;;5045335;28;20103;-70
2021/06/11 10:23:26;;;;;;;3.05;2.60;;;34.40;48.60;;;;;;5048916;28;20032;-70
2021/06/11 10:25:54;;;;;;;3.92;2.50;;;34.10;48.70;;;;;;5037995;28;20025;-69
2021/06/11 10:28:51;;;;;;;4.00;2.65;;;33.80;49.70;;;;;;5069810;28;20020;-69
2021/06/11 10:31:21;;;;;;;2.65;2.45;;;33.50;48.50;;;;;;5067172;28;20119;-69
2021/06/11 10:33:46;;;;;;;5.20;2.50;;;33.20;48.80;;;;;;5068924;28;20036;-69
2021/06/11 10:38:54;;;;;;;2.97;2.77;;;32.80;48.40;;;;;;5067950;28;20025;-68
2021/06/11 10:41:20;;;;;;;3.20;3.00;;;32.60;49.90;;;;;;5067754;28;20141;-69
2021/06/11 10:43:46;;;;;;;3.42;3.13;;;32.40;48.70;;;;;;5050559;28;20438;-69
2021/06/11 10:46:21;;;;;;;2.75;2.55;;;32.10;48.60;;;;;;5058947;28;20098;-68
2021/06/11 10:49:08;;;;;;;4.10;3.80;;;31.90;49.10;;;;;;5049421;28;20512;-69
2021/06/11 10:51:47;;;;;;;5.00;4.10;;;31.70;49.40;;;;;;5049152;28;20025;-69
2021/06/11 10:54:15;;;;;;;3.88;3.47;;;31.50;49.20;;;;;;5063804;28;20028;-69
2021/06/11 10:56:56;;;;;;;4.20;3.88;;;31.30;49.70;;;;;;5050625;28;20036;-69
2021/06/11 10:59:39;;;;;;;4.00;3.50;;;31.10;50.50;;;;;;5064983;28;20028;-69
2021/06/11 11:02:07;;;;;;;3.45;3.15;;;30.90;50.00;;;;;;5064642;28;20041;-70
2021/06/11 11:04:39;;;;;;;4.18;3.00;;;30.70;51.00;;;;;;5067887;28;20032;-69
2021/06/11 11:07:23;;;;;;;4.72;3.80;;;30.50;50.70;;;;;;5069326;28;20102;-69
2021/06/11 11:09:52;;;;;;;3.97;3.42;;;30.40;50.40;;;;;;5070037;28;20052;-69
2021/06/11 11:12:19;;;;;;;3.40;3.10;;;30.30;50.50;;;;;;5067316;28;20127;-69
2021/06/11 11:14:45;;;;;;;3.50;3.20;;;30.20;51.30;;;;;;5038638;28;20123;-69
2021/06/11 11:17:12;;;;;;;3.90;3.47;;;30.20;51.20;;;;;;5047135;28;20024;-69
2021/06/11 11:19:44;;;;;;;4.25;3.90;;;30.10;50.70;;;;;;5054722;28;20151;-69
2021/06/11 11:22:21;;;;;;;3.90;3.50;;;30.00;50.30;;;;;;5065753;28;20025;-69
2021/06/11 11:24:47;;;;;;;3.88;3.42;;;29.80;51.50;;;;;;5050484;28;20024;-70
2021/06/11 11:27:12;;;;;;;3.33;3.13;;;29.70;51.70;;;;;;5068542;28;20051;-69
2021/06/11 11:29:38;;;;;;;5.35;3.35;;;29.60;52.80;;;;;;5068977;28;20031;-69
2021/06/11 11:32:04;;;;;;;3.70;3.38;;;29.70;53.40;;;;;;5068300;28;20052;-69
2021/06/11 11:34:29;;;;;;;4.63;3.40;;;29.70;53.00;;;;;;5066742;28;20036;-69
2021/06/11 11:36:55;;;;;;;5.70;3.70;;;29.70;52.80;;;;;;5065255;28;20032;-69
2021/06/11 11:39:20;;;;;;;3.80;3.47;;;29.70;52.70;;;;;;5068802;28;20033;-69
2021/06/11 11:41:48;;;;;;;4.43;3.65;;;29.70;52.90;;;;;;5066344;28;20569;-69
2021/06/11 11:44:13;;;;;;;4.70;3.20;;;29.70;53.20;;;;;;5063972;28;20025;-69
2021/06/11 11:46:39;;;;;;;4.35;3.45;;;29.80;53.00;;;;;;5068994;28;20021;-69
2021/06/11 11:49:04;;;;;;;3.38;3.08;;;29.80;52.50;;;;;;5069822;28;20033;-69
2021/06/11 11:51:31;;;;;;;3.97;3.67;;;29.80;52.40;;;;;;5064271;28;20100;-69
2021/06/11 11:53:56;;;;;;;3.80;3.45;;;29.80;51.90;;;;;;5050274;28;20033;-69
2021/06/11 11:56:22;;;;;;;4.20;3.17;;;29.80;51.20;;;;;;5059482;28;20095;-69
2021/06/11 11:58:47;;;;;;;3.63;3.17;;;29.80;51.10;;;;;;5045108;28;20081;-70
2021/06/11 12:01:13;;;;;;;6.78;3.20;;;29.80;51.60;;;;;;5069428;28;20063;-70
2021/06/11 12:03:39;;;;;;;3.65;3.35;;;29.80;51.10;;;;;;5054384;28;20021;-70
2021/06/11 12:06:04;;;;;;;3.45;3.15;;;29.70;50.80;;;;;;5053974;28;20046;-70
2021/06/11 12:08:30;;;;;;;4.75;3.30;;;29.70;51.10;;;;;;5052066;28;20028;-70
2021/06/11 12:10:57;;;;;;;3.75;3.42;;;29.80;51.30;;;;;;5070398;28;20025;-71
2021/06/11 12:13:23;;;;;;;4.88;3.40;;;29.80;51.50;;;;;;5070515;28;20032;-70
2021/06/11 12:15:48;;;;;;;7.45;3.38;;;29.80;50.90;;;;;;5071564;28;20036;-70
2021/06/11 12:18:14;;;;;;;4.22;3.00;;;29.90;51.60;;;;;;5054383;28;20484;-70
2021/06/11 12:20:40;;;;;;;4.57;3.15;;;29.90;51.80;;;;;;5071390;28;20036;-70
2021/06/11 12:23:05;;;;;;;3.55;3.20;;;30.00;51.80;;;;;;5052948;28;20029;-70
2021/06/11 12:25:31;;;;;;;4.15;2.97;;;30.10;51.80;;;;;;5061426;28;20453;-70
2021/06/11 12:27:57;;;;;;;5.13;3.28;;;30.10;51.60;;;;;;5043510;28;20037;-70
2021/06/11 12:30:23;;;;;;;5.22;3.60;;;30.10;50.80;;;;;;5053331;28;20419;-70
2021/06/11 12:32:49;;;;;;;3.55;3.30;;;30.20;51.30;;;;;;5063149;28;20428;-70
2021/06/11 12:35:14;;;;;;;3.53;3.08;;;30.20;50.60;;;;;;5071743;28;20024;-70
2021/06/11 12:37:40;;;;;;;4.55;3.10;;;30.20;51.20;;;;;;5044207;28;20079;-70
2021/06/11 12:40:06;;;;;;;3.90;2.85;;;30.30;50.70;;;;;;5072841;28;20032;-70
2021/06/11 12:42:37;;;;;;;3.53;3.00;;;30.30;50.40;;;;;;5146560;22;20380;-73
2021/06/11 12:45:04;;;;;;;3.58;3.20;;;30.30;50.40;;;;;;5085457;28;20024;-73
2021/06/11 12:47:29;;;;;;;4.13;3.50;;;30.30;50.70;;;;;;5091048;28;20056;-74